createdAt,value
2023-03-13T05:00:42.403Z,9.08
2023-03-13T05:01:42.455Z,9.13
2023-03-13T05:02:42.335Z,9.17
2023-03-13T05:03:42.339Z,9.20
2023-03-13T05:04:42.385Z,9.23
2023-03-13T05:05:42.304Z,9.26
2023-03-13T05:06:50.369Z,9.29
2023-03-13T05:07:42.304Z,9.33
2023-03-13T05:08:42.280Z,9.33
2023-03-13T05:09:42.299Z,9.38
2023-03-13T05:10:42.241Z,9.38
2023-03-13T05:11:42.341Z,9.40
2023-03-13T05:12:42.212Z,9.42
2023-03-13T05:13:42.220Z,9.43
2023-03-13T05:14:47.543Z,9.47
2023-03-13T05:15:42.239Z,9.48
2023-03-13T05:16:42.224Z,9.50
2023-03-13T05:17:42.178Z,9.51
2023-03-13T05:18:42.140Z,9.54
2023-03-13T05:19:42.146Z,9.54
2023-03-13T05:20:42.110Z,9.56
2023-03-13T05:21:42.120Z,9.57
2023-03-13T05:22:42.136Z,9.57
2023-03-13T05:23:42.091Z,9.58
2023-03-13T05:24:42.199Z,9.61
2023-03-13T05:25:42.087Z,9.65
2023-03-13T05:26:42.049Z,9.69
2023-03-13T05:27:42.030Z,9.76
2023-03-13T05:28:42.064Z,9.83
2023-03-13T05:29:42.003Z,9.89
2023-03-13T05:30:42.031Z,9.97
2023-03-13T05:31:41.979Z,10.01
2023-03-13T05:32:42.071Z,10.05
2023-03-13T05:33:41.978Z,10.11
2023-03-13T05:34:41.957Z,10.15
2023-03-13T05:35:42.015Z,10.18
2023-03-13T05:36:41.900Z,10.25
2023-03-13T05:37:41.908Z,10.29
2023-03-13T05:38:41.885Z,10.32
2023-03-13T05:39:41.900Z,10.36
2023-03-13T05:40:41.911Z,10.41
2023-03-13T05:41:41.871Z,10.42
2023-03-13T05:42:41.900Z,10.47
2023-03-13T05:43:41.862Z,10.45
2023-03-13T05:44:41.806Z,10.48
2023-03-13T05:45:41.836Z,10.47
2023-03-13T05:46:41.807Z,10.48
2023-03-13T05:47:42.099Z,10.47
2023-03-13T05:48:41.732Z,10.48
2023-03-13T05:49:41.786Z,10.48
2023-03-13T05:50:41.734Z,10.51
2023-03-13T05:51:41.755Z,10.52
2023-03-13T05:52:41.704Z,10.53
2023-03-13T05:53:41.768Z,10.56
2023-03-13T05:54:41.676Z,10.56
2023-03-13T05:55:41.677Z,10.56
2023-03-13T05:56:41.628Z,10.59
2023-03-13T05:57:41.629Z,10.59
2023-03-13T05:58:41.658Z,10.60
2023-03-13T05:59:41.689Z,10.60
2023-03-13T06:00:41.592Z,10.63
2023-03-13T06:01:41.614Z,10.61
2023-03-13T06:02:41.560Z,10.64
2023-03-13T06:03:41.757Z,10.66
2023-03-13T06:04:41.673Z,10.71
2023-03-13T06:05:41.653Z,10.84
2023-03-13T06:06:41.502Z,10.92
2023-03-13T06:07:41.518Z,11.02
2023-03-13T06:08:41.482Z,11.04
2023-03-13T06:09:41.481Z,11.10
2023-03-13T06:10:41.452Z,11.10
2023-03-13T06:11:41.544Z,11.11
2023-03-13T06:12:41.421Z,11.15
2023-03-13T06:13:41.465Z,11.15
2023-03-13T06:14:41.441Z,11.15
2023-03-13T06:15:41.482Z,11.15
2023-03-13T06:16:41.379Z,11.17
2023-03-13T06:17:41.449Z,11.18
2023-03-13T06:18:41.365Z,11.18
2023-03-13T06:19:41.356Z,11.18
2023-03-13T06:20:42.624Z,11.19
2023-03-13T06:21:41.334Z,11.21
2023-03-13T06:22:41.298Z,11.21
2023-03-13T06:23:41.339Z,11.24
2023-03-13T06:24:41.265Z,11.28
2023-03-13T06:25:48.374Z,11.29
2023-03-13T06:26:41.256Z,11.33
2023-03-13T06:27:41.244Z,11.37
2023-03-13T06:28:41.219Z,11.42
2023-03-13T06:29:41.213Z,11.44
2023-03-13T06:30:41.189Z,11.51
2023-03-13T06:31:41.377Z,11.55
2023-03-13T06:32:41.285Z,11.62
2023-03-13T06:33:41.179Z,11.70
2023-03-13T06:34:41.135Z,11.79
2023-03-13T06:35:55.154Z,11.85
2023-03-13T06:36:42.159Z,11.94
2023-03-13T06:37:41.142Z,11.99
2023-03-13T06:38:41.084Z,12.04
2023-03-13T06:39:41.101Z,12.09
2023-03-13T06:40:41.072Z,12.12
2023-03-13T06:41:41.079Z,12.16
2023-03-13T06:42:41.103Z,12.16
2023-03-13T06:43:41.053Z,12.23
2023-03-13T06:44:41.014Z,12.31
2023-03-13T06:45:41.020Z,12.39
2023-03-13T06:46:40.997Z,12.49
2023-03-13T06:47:40.996Z,12.54
2023-03-13T06:48:41.058Z,12.60
2023-03-13T06:49:40.992Z,12.64
2023-03-13T06:50:40.979Z,12.75
2023-03-13T06:51:40.953Z,12.72
2023-03-13T06:52:44.111Z,12.75
2023-03-13T06:53:40.968Z,12.77
2023-03-13T06:54:40.898Z,12.82
2023-03-13T06:55:40.964Z,12.79
2023-03-13T06:56:40.847Z,12.87
2023-03-13T06:57:41.573Z,12.89
2023-03-13T06:58:40.819Z,12.95
2023-03-13T06:59:40.872Z,13.03
2023-03-13T07:00:40.998Z,13.08
2023-03-13T07:01:40.803Z,13.15
2023-03-13T07:02:40.788Z,13.23
2023-03-13T07:03:40.808Z,13.29
2023-03-13T07:04:40.882Z,13.33
2023-03-13T07:05:40.803Z,13.30
2023-03-13T07:06:40.794Z,13.36
2023-03-13T07:07:40.725Z,13.41
2023-03-13T07:08:40.724Z,13.41
2023-03-13T07:09:40.706Z,13.39
2023-03-13T07:10:40.664Z,13.38
2023-03-13T07:11:40.679Z,13.33
2023-03-13T07:12:40.682Z,13.38
2023-03-13T07:13:40.669Z,13.36
2023-03-13T07:14:40.612Z,13.33
2023-03-13T07:15:40.659Z,13.36
2023-03-13T07:16:40.760Z,13.33
2023-03-13T07:17:40.609Z,13.33
2023-03-13T07:18:40.592Z,13.30
2023-03-13T07:19:40.553Z,13.33
2023-03-13T07:20:40.599Z,13.32
2023-03-13T07:21:40.540Z,13.33
2023-03-13T07:22:40.507Z,13.39
2023-03-13T07:23:40.651Z,13.41
2023-03-13T07:24:40.536Z,13.45
2023-03-13T07:25:40.502Z,13.48
2023-03-13T07:26:46.480Z,13.49
2023-03-13T07:27:41.473Z,13.48
2023-03-13T07:28:40.418Z,13.51
2023-03-13T07:29:40.464Z,13.44
2023-03-13T07:30:40.442Z,13.45
2023-03-13T07:31:40.439Z,13.41
2023-03-13T07:32:40.407Z,13.44
2023-03-13T07:33:40.392Z,13.38
2023-03-13T07:34:40.356Z,13.38
2023-03-13T07:35:41.240Z,13.41
2023-03-13T07:36:40.366Z,13.36
2023-03-13T07:37:40.333Z,13.41
2023-03-13T07:38:40.308Z,13.45
2023-03-13T07:39:40.301Z,13.45
2023-03-13T07:40:40.262Z,13.51
2023-03-13T07:41:40.342Z,13.52
2023-03-13T07:42:40.235Z,13.51
2023-03-13T07:43:40.234Z,13.54
2023-03-13T07:44:40.236Z,13.57
2023-03-13T07:45:40.299Z,13.62
2023-03-13T07:46:40.188Z,13.64
2023-03-13T07:47:40.189Z,13.67
2023-03-13T07:48:40.156Z,13.70
2023-03-13T07:49:40.189Z,13.73
2023-03-13T07:50:40.179Z,13.75
2023-03-13T07:51:43.846Z,13.73
2023-03-13T07:52:40.115Z,13.73
2023-03-13T07:53:40.150Z,13.77
2023-03-13T07:54:40.083Z,13.78
2023-03-13T07:55:40.126Z,13.79
2023-03-13T07:56:40.051Z,13.79
2023-03-13T07:57:40.056Z,13.84
2023-03-13T07:58:40.024Z,13.85
2023-03-13T07:59:40.024Z,13.91
2023-03-13T08:00:40.068Z,13.99
2023-03-13T08:01:40.016Z,14.02
2023-03-13T08:02:40.083Z,14.03
2023-03-13T08:03:40.084Z,14.10
2023-03-13T08:04:39.981Z,14.12
2023-03-13T08:05:39.958Z,14.12
2023-03-13T08:06:39.991Z,14.09
2023-03-13T08:07:39.925Z,14.10
2023-03-13T08:08:39.920Z,14.07
2023-03-13T08:09:39.977Z,14.04
2023-03-13T08:10:39.875Z,14.07
2023-03-13T08:11:39.874Z,14.09
2023-03-13T08:12:39.950Z,14.15
2023-03-13T08:13:39.864Z,14.21
2023-03-13T08:14:39.800Z,14.33
2023-03-13T08:15:39.800Z,14.37
2023-03-13T08:16:39.843Z,14.42
2023-03-13T08:17:39.780Z,14.39
2023-03-13T08:18:39.799Z,14.45
2023-03-13T08:19:39.752Z,14.50
2023-03-13T08:20:39.771Z,14.50
2023-03-13T08:21:39.739Z,14.47
2023-03-13T08:22:39.692Z,14.46
2023-03-13T08:23:39.716Z,14.50
2023-03-13T08:24:39.695Z,14.45
2023-03-13T08:25:39.680Z,14.50
2023-03-13T08:26:39.711Z,14.52
2023-03-13T08:27:39.652Z,14.54
2023-03-13T08:28:39.631Z,14.61
2023-03-13T08:29:39.647Z,14.62
2023-03-13T08:30:39.636Z,14.68
2023-03-13T08:31:39.634Z,14.72
2023-03-13T08:32:39.619Z,14.65
2023-03-13T08:33:39.576Z,14.75
2023-03-13T08:34:39.554Z,14.91
2023-03-13T08:35:39.650Z,14.98
2023-03-13T08:36:39.507Z,15.07
2023-03-13T08:37:39.501Z,15.21
2023-03-13T08:38:39.561Z,15.29
2023-03-13T08:39:39.513Z,15.41
2023-03-13T08:40:39.509Z,15.50
2023-03-13T08:41:39.445Z,15.53
2023-03-13T08:42:39.435Z,15.54
2023-03-13T08:43:39.444Z,15.65
2023-03-13T08:44:39.396Z,15.72
2023-03-13T08:45:39.488Z,15.67
2023-03-13T08:46:39.454Z,15.71
2023-03-13T08:47:39.389Z,15.76
2023-03-13T08:48:39.365Z,15.89
2023-03-13T08:49:39.329Z,15.96
2023-03-13T08:50:39.380Z,16.04
2023-03-13T08:51:39.312Z,16.02
2023-03-13T08:52:39.332Z,16.01
2023-03-13T08:53:39.280Z,16.07
2023-03-13T08:54:39.300Z,16.01
2023-03-13T08:55:39.357Z,15.93
2023-03-13T08:56:39.282Z,15.76
2023-03-13T08:57:39.280Z,15.69
2023-03-13T08:58:39.249Z,15.71
2023-03-13T08:59:39.220Z,15.65
2023-03-13T09:00:39.240Z,15.69
2023-03-13T09:01:39.252Z,15.69
2023-03-13T09:02:39.270Z,15.68
2023-03-13T09:03:39.188Z,15.64
2023-03-13T09:04:39.152Z,15.60
2023-03-13T09:05:54.851Z,15.65
2023-03-13T09:06:40.211Z,15.64
2023-03-13T09:07:39.102Z,15.60
2023-03-13T09:08:39.120Z,15.65
2023-03-13T09:09:39.079Z,15.71
2023-03-13T09:10:39.163Z,15.75
2023-03-13T09:11:39.083Z,15.78
2023-03-13T09:12:39.058Z,15.80
2023-03-13T09:13:39.039Z,15.84
2023-03-13T09:14:39.085Z,15.86
2023-03-13T09:15:39.363Z,15.86
2023-03-13T09:16:39.314Z,15.94
2023-03-13T09:17:38.985Z,15.87
2023-03-13T09:18:38.968Z,15.94
2023-03-13T09:19:43.368Z,15.90
2023-03-13T09:20:39.981Z,15.92
2023-03-13T09:21:38.922Z,15.96
2023-03-13T09:22:38.921Z,15.86
2023-03-13T09:23:38.899Z,15.93
2023-03-13T09:24:38.929Z,15.90
2023-03-13T09:25:38.907Z,15.86
2023-03-13T09:26:42.668Z,15.86
2023-03-13T09:27:39.843Z,15.92
2023-03-13T09:28:38.860Z,16.00
2023-03-13T09:29:38.850Z,16.07
2023-03-13T09:30:38.824Z,16.04
2023-03-13T09:31:38.886Z,16.05
2023-03-13T09:32:38.807Z,16.08
2023-03-13T09:33:38.759Z,16.08
2023-03-13T09:34:38.763Z,16.14
2023-03-13T09:35:38.758Z,16.24
2023-03-13T09:36:38.778Z,16.25
2023-03-13T09:37:38.701Z,16.27
2023-03-13T09:38:38.761Z,16.33
2023-03-13T09:39:38.842Z,16.35
2023-03-13T09:40:38.765Z,16.31
2023-03-13T09:41:38.683Z,16.39
2023-03-13T09:42:38.672Z,16.50
2023-03-13T09:43:38.638Z,16.63
2023-03-13T09:44:38.641Z,16.70
2023-03-13T09:45:38.608Z,16.76
2023-03-13T09:46:38.770Z,16.79
2023-03-13T09:47:38.583Z,16.76
2023-03-13T09:48:38.583Z,16.81
2023-03-13T09:49:38.545Z,16.82
2023-03-13T09:50:38.566Z,16.86
2023-03-13T09:51:38.576Z,16.83
2023-03-13T09:52:38.526Z,16.71
2023-03-13T09:53:38.523Z,16.73
2023-03-13T09:54:38.515Z,16.67
2023-03-13T09:55:38.490Z,16.75
2023-03-13T09:56:38.474Z,16.78
2023-03-13T09:57:38.506Z,16.76
2023-03-13T09:58:38.443Z,16.76
2023-03-13T09:59:38.420Z,16.86
2023-03-13T10:00:38.427Z,16.93
2023-03-13T10:01:38.433Z,16.97
2023-03-13T10:02:38.476Z,17.06
2023-03-13T10:03:38.434Z,17.12
2023-03-13T10:04:41.476Z,17.22
2023-03-13T10:05:38.349Z,17.21
2023-03-13T10:06:38.379Z,17.23
2023-03-13T10:07:38.316Z,17.28
2023-03-13T10:08:38.327Z,17.22
2023-03-13T10:09:38.335Z,17.25
2023-03-13T10:10:38.345Z,17.30
2023-03-13T10:11:38.268Z,17.46
2023-03-13T10:12:38.266Z,17.70
2023-03-13T10:13:38.237Z,17.90
2023-03-13T10:14:38.239Z,17.99
2023-03-13T10:15:38.251Z,18.11
2023-03-13T10:16:38.384Z,18.18
2023-03-13T10:17:38.169Z,18.21
2023-03-13T10:18:38.194Z,18.15
2023-03-13T10:19:38.141Z,18.14
2023-03-13T10:20:38.179Z,18.18
2023-03-13T10:21:38.108Z,18.07
2023-03-13T10:22:38.177Z,17.96
2023-03-13T10:23:38.086Z,17.97
2023-03-13T10:24:38.127Z,17.95
2023-03-13T10:25:38.066Z,17.97
2023-03-13T10:26:38.088Z,17.89
2023-03-13T10:27:38.139Z,17.90
2023-03-13T10:28:38.056Z,17.79
2023-03-13T10:29:38.027Z,17.70
2023-03-13T10:30:38.100Z,17.71
2023-03-13T10:31:38.177Z,17.77
2023-03-13T10:32:38.069Z,17.81
2023-03-13T10:33:38.917Z,17.86
2023-03-13T10:34:37.979Z,17.99
2023-03-13T10:35:38.018Z,18.12
2023-03-13T10:36:38.007Z,18.20
2023-03-13T10:37:37.951Z,18.32
2023-03-13T10:38:37.931Z,18.44
2023-03-13T10:39:37.938Z,18.48
2023-03-13T10:40:37.896Z,18.52
2023-03-13T10:41:37.860Z,18.55
2023-03-13T10:42:37.946Z,18.54
2023-03-13T10:43:37.836Z,18.69
2023-03-13T10:44:37.837Z,18.81
2023-03-13T10:45:37.884Z,18.98
2023-03-13T10:46:37.999Z,19.06
2023-03-13T10:47:37.778Z,19.16
2023-03-13T10:48:37.795Z,19.22
2023-03-13T10:49:37.763Z,19.11
2023-03-13T10:50:37.762Z,19.14
2023-03-13T10:51:37.802Z,19.21
2023-03-13T10:52:37.793Z,19.26
2023-03-13T10:53:37.702Z,19.29
2023-03-13T10:54:37.765Z,19.37
2023-03-13T10:55:37.727Z,19.37
2023-03-13T10:56:37.714Z,19.26
2023-03-13T10:57:37.640Z,19.11
2023-03-13T10:58:37.765Z,19.13
2023-03-13T10:59:37.628Z,19.08
2023-03-13T11:00:37.626Z,19.23
2023-03-13T11:01:37.670Z,19.26
2023-03-13T11:02:37.818Z,19.28
2023-03-13T11:03:37.606Z,19.31
2023-03-13T11:04:37.642Z,19.41
2023-03-13T11:05:37.562Z,19.41
2023-03-13T11:06:37.568Z,19.51
2023-03-13T11:07:37.579Z,19.58
2023-03-13T11:08:37.648Z,19.62
2023-03-13T11:09:37.515Z,19.58
2023-03-13T11:10:37.498Z,19.58
2023-03-13T11:11:37.459Z,19.76
2023-03-13T11:12:37.504Z,19.78
2023-03-13T11:13:38.158Z,19.81
2023-03-13T11:14:37.490Z,19.92
2023-03-13T11:15:37.424Z,20.03
2023-03-13T11:16:37.527Z,20.14
2023-03-13T11:17:37.401Z,20.28
2023-03-13T11:18:37.399Z,20.29
2023-03-13T11:19:37.388Z,20.32
2023-03-13T11:20:37.476Z,20.50
2023-03-13T11:21:37.338Z,20.64
2023-03-13T11:22:37.356Z,20.76
2023-03-13T11:23:37.306Z,20.85
2023-03-13T11:24:37.330Z,20.72
2023-03-13T11:25:37.348Z,20.52
2023-03-13T11:26:37.326Z,20.43
2023-03-13T11:27:37.307Z,20.47
2023-03-13T11:28:37.273Z,20.47
2023-03-13T11:29:37.257Z,20.43
2023-03-13T11:30:37.267Z,20.36
2023-03-13T11:31:37.243Z,20.20
2023-03-13T11:32:37.289Z,20.17
2023-03-13T11:33:37.186Z,20.10
2023-03-13T11:34:37.209Z,20.03
2023-03-13T11:35:37.217Z,20.05
2023-03-13T11:36:37.914Z,20.05
2023-03-13T11:37:37.164Z,19.96
2023-03-13T11:38:37.184Z,19.99
2023-03-13T11:39:37.155Z,20.05
2023-03-13T11:40:37.152Z,20.13
2023-03-13T11:41:37.256Z,20.18
2023-03-13T11:42:37.171Z,20.23
2023-03-13T11:43:37.052Z,20.17
2023-03-13T11:44:37.044Z,20.11
2023-03-13T11:45:37.108Z,20.10
2023-03-13T11:46:37.154Z,20.14
2023-03-13T11:47:37.064Z,20.17
2023-03-13T11:48:37.005Z,20.33
2023-03-13T11:49:39.125Z,20.38
2023-03-13T11:50:36.968Z,20.38
2023-03-13T11:51:37.056Z,20.33
2023-03-13T11:52:36.956Z,20.41
2023-03-13T11:53:36.983Z,20.43
2023-03-13T11:54:36.934Z,20.48
2023-03-13T11:55:36.897Z,20.50
2023-03-13T11:56:36.903Z,20.47
2023-03-13T11:57:36.866Z,20.41
2023-03-13T11:58:36.909Z,20.38
2023-03-13T11:59:36.834Z,20.47
2023-03-13T12:00:36.931Z,20.41
2023-03-13T12:01:36.825Z,20.35
2023-03-13T12:02:36.955Z,20.36
2023-03-13T12:03:36.870Z,20.29
2023-03-13T12:04:36.970Z,20.16
2023-03-13T12:05:36.842Z,20.13
2023-03-13T12:06:36.810Z,20.17
2023-03-13T12:07:36.725Z,20.28
2023-03-13T12:08:36.791Z,20.32
2023-03-13T12:09:36.710Z,20.41
2023-03-13T12:10:36.714Z,20.50
2023-03-13T12:11:36.682Z,20.61
2023-03-13T12:12:36.695Z,20.67
2023-03-13T12:13:36.754Z,20.79
2023-03-13T12:14:36.698Z,20.95
2023-03-13T12:15:36.624Z,21.03
2023-03-13T12:16:36.698Z,21.12
2023-03-13T12:17:36.669Z,21.13
2023-03-13T12:18:36.614Z,21.22
2023-03-13T12:19:36.670Z,21.19
2023-03-13T12:20:36.663Z,21.27
2023-03-13T12:21:36.606Z,21.37
2023-03-13T12:22:36.567Z,21.54
2023-03-13T12:23:36.670Z,21.72
2023-03-13T12:24:36.550Z,21.82
2023-03-13T12:25:39.221Z,21.88
2023-03-13T12:26:36.501Z,21.82
2023-03-13T12:27:36.495Z,21.79
2023-03-13T12:28:36.549Z,21.82
2023-03-13T12:29:36.454Z,21.82
2023-03-13T12:30:36.536Z,21.84
2023-03-13T12:31:36.465Z,21.83
2023-03-13T12:32:36.504Z,21.79
2023-03-13T12:33:36.405Z,21.74
2023-03-13T12:34:36.402Z,21.72
2023-03-13T12:35:36.378Z,21.72
2023-03-13T12:36:36.389Z,21.72
2023-03-13T12:37:36.577Z,21.72
2023-03-13T12:38:36.438Z,21.72
2023-03-13T12:39:36.327Z,21.59
2023-03-13T12:40:36.349Z,21.52
2023-03-13T12:41:36.322Z,21.43
2023-03-13T12:42:36.328Z,21.35
2023-03-13T12:43:36.314Z,21.31
2023-03-13T12:44:36.266Z,21.29
2023-03-13T12:45:36.297Z,21.29
2023-03-13T12:46:36.327Z,21.27
2023-03-13T12:47:36.229Z,21.24
2023-03-13T12:48:36.224Z,21.19
2023-03-13T12:49:36.219Z,21.19
2023-03-13T12:50:36.197Z,21.24
2023-03-13T12:51:36.164Z,21.32
2023-03-13T12:52:36.169Z,21.32
2023-03-13T12:53:36.168Z,21.27
2023-03-13T12:54:36.188Z,21.28
2023-03-13T12:55:36.130Z,21.31
2023-03-13T12:56:36.138Z,21.19
2023-03-13T12:57:36.096Z,21.24
2023-03-13T12:58:36.090Z,21.19
2023-03-13T12:59:36.123Z,21.31
2023-03-13T13:00:36.051Z,21.42
2023-03-13T13:01:36.143Z,21.54
2023-03-13T13:02:36.005Z,21.58
2023-03-13T13:03:36.039Z,21.65
2023-03-13T13:04:36.047Z,21.74
2023-03-13T13:05:36.036Z,21.79
2023-03-13T13:06:35.969Z,21.68
2023-03-13T13:07:35.974Z,21.79
2023-03-13T13:08:35.971Z,21.96
2023-03-13T13:09:35.923Z,22.02
2023-03-13T13:10:35.960Z,22.05
2023-03-13T13:11:35.991Z,22.24
2023-03-13T13:12:35.960Z,22.36
2023-03-13T13:13:35.872Z,22.40
2023-03-13T13:14:35.844Z,22.57
2023-03-13T13:15:35.930Z,22.52
2023-03-13T13:16:35.861Z,22.65
2023-03-13T13:17:35.829Z,22.67
2023-03-13T13:18:35.793Z,22.61
2023-03-13T13:19:35.802Z,22.67
2023-03-13T13:20:35.771Z,22.82
2023-03-13T13:21:35.778Z,22.91
2023-03-13T13:22:35.811Z,23.02
2023-03-13T13:23:35.753Z,23.15
2023-03-13T13:24:35.730Z,23.16
2023-03-13T13:25:35.790Z,23.28
2023-03-13T13:26:35.690Z,23.35
2023-03-13T13:27:35.679Z,23.55
2023-03-13T13:28:35.754Z,23.60
2023-03-13T13:29:35.669Z,23.63
2023-03-13T13:30:35.729Z,23.65
2023-03-13T13:31:35.814Z,23.75
2023-03-13T13:32:35.639Z,23.69
2023-03-13T13:33:35.609Z,23.73
2023-03-13T13:34:35.589Z,23.83
2023-03-13T13:35:35.695Z,23.85
2023-03-13T13:36:35.596Z,23.85
2023-03-13T13:37:35.639Z,23.88
2023-03-13T13:38:35.542Z,23.90
2023-03-13T13:39:35.607Z,23.69
2023-03-13T13:40:35.519Z,23.65
2023-03-13T13:41:35.589Z,23.55
2023-03-13T13:42:35.518Z,23.43
2023-03-13T13:43:35.567Z,23.38
2023-03-13T13:44:35.456Z,23.33
2023-03-13T13:45:35.459Z,23.22
2023-03-13T13:46:35.496Z,23.22
2023-03-13T13:47:35.436Z,23.13
2023-03-13T13:48:35.398Z,23.04
2023-03-13T13:49:35.525Z,23.02
2023-03-13T13:50:35.384Z,23.10
2023-03-13T13:51:35.411Z,23.12
2023-03-13T13:52:35.389Z,23.09
2023-03-13T13:53:35.360Z,23.12
2023-03-13T13:54:35.329Z,23.13
2023-03-13T13:55:35.384Z,23.17
2023-03-13T13:56:35.340Z,23.20
2023-03-13T13:57:35.355Z,23.27
2023-03-13T13:58:35.286Z,23.19
2023-03-13T13:59:35.280Z,23.15
2023-03-13T14:00:35.277Z,23.16
2023-03-13T14:01:35.317Z,23.16
2023-03-13T14:02:35.219Z,23.13
2023-03-13T14:03:35.219Z,23.12
2023-03-13T14:04:35.263Z,23.09
2023-03-13T14:05:35.300Z,23.09
2023-03-13T14:06:35.183Z,23.09
2023-03-13T14:07:35.196Z,23.09
2023-03-13T14:08:35.138Z,23.00
2023-03-13T14:09:37.268Z,23.09
2023-03-13T14:10:35.160Z,23.15
2023-03-13T14:11:35.133Z,23.25
2023-03-13T14:12:35.154Z,23.32
2023-03-13T14:13:35.110Z,23.35
2023-03-13T14:14:35.069Z,23.39
2023-03-13T14:15:35.126Z,23.42
2023-03-13T14:16:35.120Z,23.57
2023-03-13T14:17:35.053Z,23.66
2023-03-13T14:18:35.015Z,23.63
2023-03-13T14:19:35.024Z,23.53
2023-03-13T14:20:35.050Z,23.38
2023-03-13T14:21:34.998Z,23.31
2023-03-13T14:22:34.970Z,23.16
2023-03-13T14:23:35.018Z,23.09
2023-03-13T14:24:34.960Z,23.10
2023-03-13T14:25:34.953Z,23.15
2023-03-13T14:26:35.042Z,23.12
2023-03-13T14:27:34.945Z,23.15
2023-03-13T14:28:34.907Z,23.13
2023-03-13T14:29:34.907Z,23.02
2023-03-13T14:30:34.888Z,23.04
2023-03-13T14:31:35.257Z,23.05
2023-03-13T14:32:35.021Z,23.02
2023-03-13T14:33:34.858Z,23.07
2023-03-13T14:34:34.858Z,23.07
2023-03-13T14:35:34.843Z,23.02
2023-03-13T14:36:34.817Z,23.04
2023-03-13T14:37:34.823Z,23.13
2023-03-13T14:38:34.860Z,23.32
2023-03-13T14:39:34.780Z,23.40
2023-03-13T14:40:34.814Z,23.60
2023-03-13T14:41:34.747Z,23.73
2023-03-13T14:42:34.717Z,23.83
2023-03-13T14:43:34.722Z,23.72
2023-03-13T14:44:34.737Z,23.55
2023-03-13T14:45:34.814Z,23.57
2023-03-13T14:46:34.695Z,23.47
2023-03-13T14:47:34.676Z,23.35
2023-03-13T14:48:34.670Z,23.28
2023-03-13T14:49:34.683Z,23.10
2023-03-13T14:50:34.608Z,23.01
2023-03-13T14:51:34.661Z,23.01
2023-03-13T14:52:34.587Z,23.16
2023-03-13T14:53:34.597Z,23.19
2023-03-13T14:54:34.567Z,23.22
2023-03-13T14:55:34.615Z,23.31
2023-03-13T14:56:34.582Z,23.47
2023-03-13T14:57:34.553Z,23.40
2023-03-13T14:58:34.520Z,23.53
2023-03-13T14:59:34.513Z,23.54
2023-03-13T15:00:34.543Z,23.55
2023-03-13T15:01:34.482Z,23.63
2023-03-13T15:02:34.449Z,23.61
2023-03-13T15:03:34.472Z,23.48
2023-03-13T15:04:34.511Z,23.42
2023-03-13T15:05:34.484Z,23.46
2023-03-13T15:06:34.399Z,23.46
2023-03-13T15:07:34.400Z,23.39
2023-03-13T15:08:34.401Z,23.31
2023-03-13T15:09:34.382Z,23.19
2023-03-13T15:10:34.411Z,23.15
2023-03-13T15:11:34.401Z,23.16
2023-03-13T15:12:34.321Z,23.17
2023-03-13T15:13:34.378Z,23.25
2023-03-13T15:14:34.317Z,23.33
2023-03-13T15:15:34.352Z,23.27
2023-03-13T15:16:34.351Z,23.33
2023-03-13T15:17:34.281Z,23.27
2023-03-13T15:18:34.246Z,23.28
2023-03-13T15:19:34.248Z,23.32
2023-03-13T15:20:34.226Z,23.32
2023-03-13T15:21:34.279Z,23.36
2023-03-13T15:22:34.190Z,23.38
2023-03-13T15:23:34.190Z,23.40
2023-03-13T15:24:34.310Z,23.43
2023-03-13T15:25:34.170Z,23.22
2023-03-13T15:26:34.220Z,23.17
2023-03-13T15:27:34.154Z,23.17
2023-03-13T15:28:34.114Z,23.02
2023-03-13T15:29:34.111Z,22.82
2023-03-13T15:30:34.080Z,22.70
2023-03-13T15:31:34.103Z,22.62
2023-03-13T15:32:34.172Z,22.55
2023-03-13T15:33:34.116Z,22.47
2023-03-13T15:34:34.106Z,22.43
2023-03-13T15:35:34.152Z,22.28
2023-03-13T15:36:34.004Z,22.20
2023-03-13T15:37:33.999Z,22.14
2023-03-13T15:38:34.040Z,22.15
2023-03-13T15:39:33.980Z,22.09
2023-03-13T15:40:33.955Z,21.99
2023-03-13T15:41:33.968Z,21.88
2023-03-13T15:42:33.920Z,21.72
2023-03-13T15:43:33.949Z,21.61
2023-03-13T15:44:33.955Z,21.46
2023-03-13T15:45:33.956Z,21.42
2023-03-13T15:46:33.957Z,21.32
2023-03-13T15:47:33.889Z,21.27
2023-03-13T15:48:33.841Z,21.21
2023-03-13T15:49:33.871Z,21.19
2023-03-13T15:50:33.876Z,21.14
2023-03-13T15:51:33.868Z,21.09
2023-03-13T15:52:33.806Z,21.04
2023-03-13T15:53:33.842Z,20.99
2023-03-13T15:54:33.769Z,20.88
2023-03-13T15:55:33.787Z,20.85
2023-03-13T15:56:33.828Z,20.82
2023-03-13T15:57:33.766Z,20.77
2023-03-13T15:58:33.723Z,20.70
2023-03-13T15:59:35.496Z,20.69
2023-03-13T16:00:33.689Z,20.64
2023-03-13T16:01:33.738Z,20.66
2023-03-13T16:02:33.699Z,20.62
2023-03-13T16:03:33.661Z,20.58
2023-03-13T16:04:33.704Z,20.57
2023-03-13T16:05:33.709Z,20.54
2023-03-13T16:06:33.640Z,20.52
2023-03-13T16:07:33.656Z,20.47
2023-03-13T16:08:35.939Z,20.42
2023-03-13T16:09:33.595Z,20.36
2023-03-13T16:10:33.593Z,20.28
2023-03-13T16:11:33.621Z,20.21
2023-03-13T16:12:33.553Z,20.20
2023-03-13T16:13:33.567Z,20.18
2023-03-13T16:14:33.504Z,20.17
2023-03-13T16:15:33.569Z,20.24
2023-03-13T16:16:36.908Z,20.29
2023-03-13T16:17:33.502Z,20.35
2023-03-13T16:18:33.458Z,20.43
2023-03-13T16:19:33.545Z,20.62
2023-03-13T16:20:33.427Z,20.74
2023-03-13T16:21:34.030Z,20.87
2023-03-13T16:22:33.414Z,20.98
2023-03-13T16:23:33.454Z,21.07
2023-03-13T16:24:33.390Z,21.13
2023-03-13T16:25:33.395Z,21.17
2023-03-13T16:26:33.376Z,21.16
2023-03-13T16:27:33.439Z,21.04
2023-03-13T16:28:33.413Z,20.94
2023-03-13T16:29:33.337Z,20.89
2023-03-13T16:30:33.303Z,20.80
2023-03-13T16:31:33.392Z,20.66
2023-03-13T16:32:33.349Z,20.51
2023-03-13T16:33:33.339Z,20.32
2023-03-13T16:34:33.263Z,20.16
2023-03-13T16:35:33.327Z,20.03
2023-03-13T16:36:33.229Z,19.92
2023-03-13T16:37:33.295Z,19.81
2023-03-13T16:38:33.205Z,19.71
2023-03-13T16:39:33.247Z,19.58
2023-03-13T16:40:33.181Z,19.44
2023-03-13T16:41:33.195Z,19.26
2023-03-13T16:42:33.137Z,19.23
2023-03-13T16:43:33.157Z,19.18
2023-03-13T16:44:33.118Z,19.11
2023-03-13T16:45:33.262Z,19.07
2023-03-13T16:46:33.151Z,18.99
2023-03-13T16:47:33.105Z,18.92
2023-03-13T16:48:33.106Z,18.78
2023-03-13T16:49:33.069Z,18.69
2023-03-13T16:50:33.215Z,18.63
2023-03-13T16:51:33.049Z,18.55
2023-03-13T16:52:33.008Z,18.57
2023-03-13T16:53:33.026Z,18.60
2023-03-13T16:54:32.984Z,18.57
2023-03-13T16:55:33.038Z,18.52
2023-03-13T16:56:33.011Z,18.48
2023-03-13T16:57:32.978Z,18.44
2023-03-13T16:58:33.012Z,18.41
2023-03-13T16:59:32.936Z,18.36
2023-03-13T17:00:33.004Z,18.32
2023-03-13T17:01:32.935Z,18.25
2023-03-13T17:02:32.920Z,18.18
2023-03-13T17:03:32.905Z,18.12
2023-03-13T17:04:32.932Z,18.02
2023-03-13T17:05:32.911Z,17.92
2023-03-13T17:06:32.844Z,17.84
2023-03-13T17:07:32.824Z,17.77
2023-03-13T17:08:32.796Z,17.74
2023-03-13T17:09:32.802Z,17.68
2023-03-13T17:10:32.774Z,17.64
2023-03-13T17:11:32.813Z,17.59
2023-03-13T17:12:32.748Z,17.56
2023-03-13T17:13:32.740Z,17.54
2023-03-13T17:14:39.791Z,17.48
2023-03-13T17:15:32.771Z,17.46
2023-03-13T17:16:32.712Z,17.44
2023-03-13T17:17:32.675Z,17.46
2023-03-13T17:18:32.677Z,17.46
2023-03-13T17:19:32.664Z,17.46
2023-03-13T17:20:32.670Z,17.46
2023-03-13T17:21:32.668Z,17.44
2023-03-13T17:22:32.628Z,17.41
2023-03-13T17:23:32.595Z,17.37
2023-03-13T17:24:32.606Z,17.31
2023-03-13T17:25:32.565Z,17.26
2023-03-13T17:26:32.582Z,17.23
2023-03-13T17:27:32.606Z,17.19
2023-03-13T17:28:32.555Z,17.14
2023-03-13T17:29:32.528Z,17.07
2023-03-13T17:30:32.538Z,17.03
2023-03-13T17:31:32.552Z,16.98
2023-03-13T17:32:32.510Z,16.96
2023-03-13T17:33:32.531Z,16.91
2023-03-13T17:34:32.501Z,16.88
2023-03-13T17:35:32.431Z,16.88
2023-03-13T17:36:32.448Z,16.88
2023-03-13T17:37:32.411Z,16.88
2023-03-13T17:38:32.422Z,16.85
2023-03-13T17:39:32.466Z,16.83
2023-03-13T17:40:32.419Z,16.83
2023-03-13T17:41:32.364Z,16.81
2023-03-13T17:42:32.431Z,16.79
2023-03-13T17:43:32.346Z,16.76
2023-03-13T17:44:32.376Z,16.75
2023-03-13T17:45:32.409Z,16.70
2023-03-13T17:46:32.404Z,16.68
2023-03-13T17:47:32.333Z,16.63
2023-03-13T17:48:32.314Z,16.60
2023-03-13T17:49:32.268Z,16.57
2023-03-13T17:50:32.300Z,16.53
2023-03-13T17:51:32.302Z,16.49
2023-03-13T17:52:32.229Z,16.46
2023-03-13T17:53:32.233Z,16.43